Time;durP1;ratioP1;P1;durP2;ratioP2;P2;SDS_P1;SDS_P2;PMS_P1;PMS_P2;Temp;Humidity;BMP_temperature;BMP_pressure;BME280_temperature;BME280_humidity;BME280_pressure;Samples;Min_cycle;Max_cycle;Signal;HPM_P1;HPM_P2
2023/07/05 00:01:24;;;;;;;10.68;6.53;;;23.70;46.50;;;;;;6136576;22;114612;-78
2023/07/05 00:03:51;;;;;;;8.77;5.50;;;23.70;46.60;;;;;;6113235;23;114311;-79
2023/07/05 00:06:18;;;;;;;9.00;5.82;;;23.70;46.50;;;;;;6112695;23;114317;-78
2023/07/05 00:08:45;;;;;;;9.73;5.57;;;23.70;45.50;;;;;;6113086;23;116981;-78
2023/07/05 00:11:12;;;;;;;10.27;5.88;;;23.50;46.50;;;;;;6112868;23;114681;-78
2023/07/05 00:13:40;;;;;;;8.30;5.90;;;23.50;46.10;;;;;;6113066;23;114074;-77
2023/07/05 00:16:09;;;;;;;8.40;5.63;;;23.50;46.60;;;;;;6114128;23;114092;-78
2023/07/05 00:18:36;;;;;;;8.18;5.57;;;23.60;46.70;;;;;;6111353;23;114918;-78
2023/07/05 00:21:05;;;;;;;7.32;5.45;;;23.60;46.30;;;;;;6112075;23;115830;-78
2023/07/05 00:23:33;;;;;;;7.72;5.10;;;23.70;46.00;;;;;;6112918;23;114325;-78
2023/07/05 00:26:01;;;;;;;8.88;5.07;;;23.70;45.90;;;;;;6114004;23;114223;-78
2023/07/05 00:28:28;;;;;;;8.65;5.32;;;23.70;46.20;;;;;;6110221;23;114929;-78
2023/07/05 00:30:55;;;;;;;8.15;5.40;;;23.70;44.90;;;;;;6112826;23;114583;-78
2023/07/05 00:33:22;;;;;;;8.48;5.18;;;23.60;46.10;;;;;;6113775;23;114148;-78
2023/07/05 00:35:51;;;;;;;8.07;5.60;;;23.60;46.10;;;;;;6114110;23;114291;-78
2023/07/05 00:38:18;;;;;;;6.80;5.07;;;23.70;46.20;;;;;;6112744;23;114898;-78
2023/07/05 00:40:46;;;;;;;7.07;5.20;;;23.70;46.00;;;;;;6111188;23;114647;-78
2023/07/05 00:43:13;;;;;;;8.82;5.13;;;23.70;46.10;;;;;;6113975;23;114294;-78
2023/07/05 00:45:43;;;;;;;8.07;5.20;;;23.70;45.70;;;;;;6112904;23;114287;-78
2023/07/05 00:48:14;;;;;;;7.65;5.10;;;23.70;45.30;;;;;;6112937;22;114894;-78
2023/07/05 00:50:41;;;;;;;7.60;4.90;;;23.70;44.90;;;;;;6111462;23;114551;-78
2023/07/05 00:53:09;;;;;;;9.35;5.63;;;23.60;45.50;;;;;;6087141;23;114006;-79
2023/07/05 00:55:36;;;;;;;8.45;5.43;;;23.50;44.90;;;;;;6112030;23;114403;-77
2023/07/05 00:58:03;;;;;;;8.13;5.30;;;23.40;44.70;;;;;;6111242;23;114955;-78
2023/07/05 01:00:30;;;;;;;7.05;5.15;;;23.30;45.60;;;;;;6110985;23;114607;-78
2023/07/05 01:02:58;;;;;;;8.02;5.15;;;23.30;46.40;;;;;;6113631;23;114089;-78
2023/07/05 01:05:26;;;;;;;7.10;4.88;;;23.40;46.00;;;;;;6112522;22;114099;-79
2023/07/05 01:07:54;;;;;;;8.15;4.97;;;23.40;46.40;;;;;;6112692;23;114721;-77
2023/07/05 01:10:24;;;;;;;8.40;4.75;;;23.50;46.50;;;;;;6112999;23;114667;-77
2023/07/05 01:13:10;;;;;;;10.27;5.57;;;23.50;45.40;;;;;;6113413;23;114172;-78
2023/07/05 01:15:43;;;;;;;9.10;5.15;;;23.50;45.00;;;;;;6088480;23;114406;-79
2023/07/05 01:18:16;;;;;;;7.20;4.80;;;23.50;45.30;;;;;;6110280;23;116138;-79
2023/07/05 01:20:53;;;;;;;8.38;5.32;;;23.50;45.70;;;;;;6110507;23;115238;-78
2023/07/05 01:23:31;;;;;;;10.68;4.82;;;23.50;45.90;;;;;;6112068;23;114329;-78
2023/07/05 01:26:21;;;;;;;8.18;5.10;;;23.60;45.80;;;;;;6113362;23;114240;-79
2023/07/05 01:29:22;;;;;;;9.10;5.30;;;23.70;45.30;;;;;;6135403;22;115223;-79
2023/07/05 01:32:10;;;;;;;6.50;4.47;;;23.80;45.70;;;;;;6112058;22;114493;-79
2023/07/05 01:34:42;;;;;;;8.05;5.25;;;23.70;45.90;;;;;;6087434;23;114108;-80
2023/07/05 01:37:20;;;;;;;8.35;4.90;;;23.70;45.10;;;;;;6114264;23;114149;-78
2023/07/05 01:39:47;;;;;;;10.60;5.13;;;23.80;45.30;;;;;;6112232;22;116729;-79
2023/07/05 01:42:14;;;;;;;8.32;5.10;;;23.70;45.50;;;;;;6136772;22;114593;-79
2023/07/05 01:44:41;;;;;;;7.28;5.05;;;23.80;44.60;;;;;;6112561;23;114635;-79
2023/07/05 01:47:15;;;;;;;8.27;5.18;;;23.70;45.50;;;;;;6114457;23;114441;-79
2023/07/05 01:49:53;;;;;;;7.57;4.45;;;23.70;45.30;;;;;;6087949;23;114841;-79
2023/07/05 01:52:29;;;;;;;6.68;5.00;;;23.70;45.70;;;;;;6111946;23;114814;-79
2023/07/05 01:55:04;;;;;;;8.48;4.85;;;23.70;45.20;;;;;;6112977;23;114185;-79
2023/07/05 01:57:39;;;;;;;6.78;5.18;;;23.70;45.60;;;;;;6114449;23;114365;-79
2023/07/05 02:00:17;;;;;;;6.78;4.90;;;23.70;45.90;;;;;;6112145;22;114834;-79
2023/07/05 02:02:49;;;;;;;8.98;4.80;;;23.70;46.00;;;;;;6087850;23;114827;-79
2023/07/05 02:05:16;;;;;;;7.45;4.57;;;23.70;45.20;;;;;;6088369;23;114562;-79
2023/07/05 02:07:44;;;;;;;8.75;5.40;;;23.70;45.90;;;;;;6113177;23;114256;-79
2023/07/05 02:10:11;;;;;;;8.20;5.18;;;23.60;45.80;;;;;;6111447;23;115439;-78
2023/07/05 02:12:38;;;;;;;7.20;5.10;;;23.70;44.80;;;;;;6111908;23;114585;-79
2023/07/05 02:15:06;;;;;;;5.82;4.28;;;23.60;45.40;;;;;;6114400;23;113993;-78
2023/07/05 02:17:33;;;;;;;7.18;5.05;;;23.60;45.80;;;;;;6112995;23;114132;-79
2023/07/05 02:20:00;;;;;;;6.93;4.60;;;23.50;45.80;;;;;;6136697;22;115520;-79
2023/07/05 02:22:28;;;;;;;5.90;4.30;;;23.50;45.60;;;;;;6111742;23;114632;-79
2023/07/05 02:24:55;;;;;;;8.15;4.47;;;23.50;45.90;;;;;;6112718;23;114373;-79
2023/07/05 02:27:26;;;;;;;7.53;4.53;;;23.60;46.20;;;;;;6114730;23;114225;-78
2023/07/05 02:29:53;;;;;;;8.02;4.75;;;23.60;45.90;;;;;;6113365;23;114878;-78
2023/07/05 02:32:21;;;;;;;9.90;5.13;;;23.60;46.00;;;;;;6112901;23;114759;-79
2023/07/05 02:34:49;;;;;;;7.07;4.40;;;23.70;45.30;;;;;;6114075;23;114240;-78
2023/07/05 02:37:16;;;;;;;6.63;4.68;;;23.60;45.80;;;;;;6114190;23;114485;-78
2023/07/05 02:39:43;;;;;;;6.00;4.50;;;23.60;45.80;;;;;;6112937;23;116246;-78
2023/07/05 02:42:10;;;;;;;6.47;4.35;;;23.70;45.80;;;;;;6113431;23;115412;-78
2023/07/05 02:44:38;;;;;;;7.82;4.57;;;23.70;45.90;;;;;;6088300;23;114564;-78
2023/07/05 02:47:32;;;;;;;7.32;5.00;;;23.70;45.60;;;;;;6114197;23;114230;-78
2023/07/05 02:49:59;;;;;;;8.18;5.32;;;23.70;45.80;;;;;;6110681;23;117022;-78
2023/07/05 02:52:27;;;;;;;7.35;4.55;;;23.60;45.90;;;;;;6137308;22;114679;-78
2023/07/05 02:54:54;;;;;;;8.35;4.90;;;23.70;45.80;;;;;;6137203;22;115053;-79
2023/07/05 02:57:23;;;;;;;7.10;4.78;;;23.70;45.00;;;;;;6138164;22;114078;-79
2023/07/05 02:59:50;;;;;;;8.50;5.10;;;23.60;45.60;;;;;;6086787;23;114851;-79
2023/07/05 03:02:17;;;;;;;6.13;4.38;;;23.60;45.00;;;;;;6111723;23;114536;-79
2023/07/05 03:04:46;;;;;;;6.10;4.28;;;23.60;45.80;;;;;;6112609;23;114318;-79
2023/07/05 03:07:13;;;;;;;8.27;4.72;;;23.60;46.20;;;;;;6114449;23;114149;-78
2023/07/05 03:09:40;;;;;;;7.45;4.78;;;23.60;45.90;;;;;;6113244;23;115293;-78
2023/07/05 03:12:08;;;;;;;7.80;4.75;;;23.60;45.90;;;;;;6111509;23;114568;-78
2023/07/05 03:14:35;;;;;;;10.38;5.10;;;23.70;45.40;;;;;;6112864;22;114071;-78
2023/07/05 03:17:03;;;;;;;6.82;4.32;;;23.70;45.10;;;;;;6114376;22;114261;-79
2023/07/05 03:19:32;;;;;;;6.50;4.78;;;23.80;45.80;;;;;;6113295;22;115181;-78
2023/07/05 03:21:59;;;;;;;8.15;5.00;;;23.80;45.40;;;;;;6113350;23;114615;-78
2023/07/05 03:24:28;;;;;;;8.68;4.78;;;24.00;44.60;;;;;;6113691;23;114040;-78
2023/07/05 03:26:56;;;;;;;7.72;5.13;;;24.20;44.80;;;;;;6111737;23;114300;-79
2023/07/05 03:29:23;;;;;;;7.47;4.72;;;24.40;44.40;;;;;;6136445;22;114724;-78
2023/07/05 03:31:50;;;;;;;7.57;4.95;;;24.70;44.20;;;;;;6085677;23;115117;-78
2023/07/05 03:34:17;;;;;;;7.88;4.80;;;25.10;43.70;;;;;;6137138;22;114165;-78
2023/07/05 03:36:44;;;;;;;8.05;4.90;;;25.40;42.80;;;;;;6114448;23;114370;-78
2023/07/05 03:39:14;;;;;;;6.70;4.50;;;25.70;42.30;;;;;;6086961;23;114767;-78
2023/07/05 03:41:42;;;;;;;7.45;4.78;;;25.90;42.00;;;;;;6136569;22;115632;-76
2023/07/05 03:44:09;;;;;;;6.72;4.80;;;26.20;41.70;;;;;;6114148;23;114164;-79
2023/07/05 03:46:36;;;;;;;7.78;4.35;;;26.40;40.80;;;;;;6137573;22;114205;-77
2023/07/05 03:49:03;;;;;;;6.70;4.30;;;26.60;40.80;;;;;;6086439;23;117887;-79
2023/07/05 03:51:30;;;;;;;7.10;4.28;;;26.70;40.40;;;;;;6112854;23;114589;-79
2023/07/05 03:53:58;;;;;;;8.00;4.95;;;26.70;40.30;;;;;;6114017;23;114391;-78
2023/07/05 03:56:30;;;;;;;7.97;5.28;;;26.80;39.90;;;;;;6113754;23;114488;-79
2023/07/05 03:58:57;;;;;;;7.63;4.30;;;26.80;39.80;;;;;;6111228;23;114865;-78
2023/07/05 04:01:25;;;;;;;7.13;4.90;;;26.90;39.90;;;;;;6110957;23;115041;-78
2023/07/05 04:03:54;;;;;;;8.85;5.20;;;27.00;39.60;;;;;;6112375;23;114384;-78
2023/07/05 04:06:22;;;;;;;8.73;5.85;;;27.00;39.00;;;;;;6114132;23;114134;-78
2023/07/05 04:08:49;;;;;;;8.38;4.57;;;27.10;39.00;;;;;;6086847;23;116236;-77
2023/07/05 04:11:17;;;;;;;6.97;5.07;;;27.10;39.30;;;;;;6112699;23;115987;-78
2023/07/05 04:13:45;;;;;;;7.63;5.30;;;27.10;39.00;;;;;;6111916;23;114419;-78
2023/07/05 04:16:14;;;;;;;7.15;4.50;;;26.80;39.20;;;;;;6114025;23;113879;-78
2023/07/05 04:18:42;;;;;;;7.75;4.85;;;26.70;39.80;;;;;;6112838;23;114955;-78
2023/07/05 04:21:09;;;;;;;8.10;5.28;;;26.70;39.70;;;;;;6112673;23;116017;-78
2023/07/05 04:23:36;;;;;;;8.25;5.38;;;26.70;39.80;;;;;;6112674;23;114110;-78
2023/07/05 04:26:09;;;;;;;8.20;5.28;;;26.70;39.90;;;;;;6114065;23;114075;-79
2023/07/05 04:28:37;;;;;;;8.38;5.13;;;26.70;39.60;;;;;;6110858;23;119214;-78
2023/07/05 04:31:05;;;;;;;9.43;5.18;;;26.70;39.50;;;;;;6113169;23;114670;-79
2023/07/05 04:33:32;;;;;;;7.47;5.32;;;26.70;39.80;;;;;;6113622;23;114309;-78
2023/07/05 04:36:00;;;;;;;8.60;5.18;;;26.70;39.60;;;;;;6113779;23;114026;-78
2023/07/05 04:38:27;;;;;;;11.52;5.90;;;26.70;39.80;;;;;;6112141;23;114942;-78
2023/07/05 04:40:55;;;;;;;9.38;5.53;;;26.70;39.70;;;;;;6112623;23;115805;-78
2023/07/05 04:43:23;;;;;;;7.47;5.15;;;26.60;40.00;;;;;;6112411;23;114388;-79
2023/07/05 04:45:54;;;;;;;7.10;5.05;;;26.60;39.80;;;;;;6112328;23;114205;-78
2023/07/05 04:48:22;;;;;;;6.95;5.53;;;26.70;39.70;;;;;;6110982;23;114704;-78
2023/07/05 04:50:52;;;;;;;8.52;5.70;;;26.70;39.70;;;;;;6112444;23;114563;-78
2023/07/05 04:53:21;;;;;;;8.23;5.65;;;26.70;39.60;;;;;;6113734;22;114546;-79
2023/07/05 04:55:49;;;;;;;9.68;5.70;;;26.80;39.70;;;;;;6113939;22;114210;-77
2023/07/05 04:58:17;;;;;;;10.45;5.90;;;26.80;39.70;;;;;;6110871;23;115080;-77
2023/07/05 05:00:49;;;;;;;8.55;5.47;;;26.80;39.60;;;;;;6112046;22;116023;-77
2023/07/05 05:03:18;;;;;;;11.00;6.00;;;26.80;39.30;;;;;;6087933;23;114117;-78
2023/07/05 05:05:47;;;;;;;8.20;5.35;;;26.70;39.50;;;;;;6113480;22;114365;-78
2023/07/05 05:08:14;;;;;;;8.70;5.95;;;26.60;39.70;;;;;;6110911;23;114950;-77
2023/07/05 05:10:42;;;;;;;9.25;5.68;;;26.50;40.00;;;;;;6111028;23;114647;-77
2023/07/05 05:13:09;;;;;;;7.93;5.55;;;26.50;40.50;;;;;;6114196;23;114139;-78
2023/07/05 05:15:39;;;;;;;10.20;6.30;;;26.60;40.40;;;;;;6114615;23;114290;-79
2023/07/05 05:18:07;;;;;;;8.57;5.82;;;26.70;40.10;;;;;;6113871;23;114958;-78
2023/07/05 05:20:34;;;;;;;8.45;5.85;;;26.70;39.90;;;;;;6112535;23;115267;-78
2023/07/05 05:23:01;;;;;;;8.48;5.30;;;26.70;39.80;;;;;;6114571;23;114174;-79
2023/07/05 05:25:35;;;;;;;10.15;6.05;;;26.70;40.00;;;;;;6114639;23;114017;-78
2023/07/05 05:28:05;;;;;;;8.88;5.72;;;26.80;40.00;;;;;;6092149;23;117562;-78
2023/07/05 05:30:33;;;;;;;8.32;4.95;;;26.90;39.70;;;;;;6113212;23;114507;-78
2023/07/05 05:33:02;;;;;;;10.38;5.80;;;27.00;39.80;;;;;;6114023;23;114167;-79
2023/07/05 05:35:31;;;;;;;11.57;5.70;;;27.10;39.70;;;;;;6112821;23;114236;-78
2023/07/05 05:37:58;;;;;;;8.57;5.20;;;27.30;39.70;;;;;;6112076;23;115449;-78
2023/07/05 05:40:25;;;;;;;8.77;5.93;;;27.30;39.70;;;;;;6113356;23;114625;-78
2023/07/05 05:42:53;;;;;;;10.88;6.53;;;27.30;39.60;;;;;;6137874;22;114117;-78
2023/07/05 05:45:20;;;;;;;7.68;5.32;;;27.40;39.40;;;;;;6115035;23;114209;-79
2023/07/05 05:47:47;;;;;;;11.32;6.38;;;27.40;39.70;;;;;;6113459;23;114856;-79
2023/07/05 05:50:15;;;;;;;8.23;5.40;;;27.60;39.40;;;;;;6113477;23;114477;-79
2023/07/05 05:52:42;;;;;;;7.43;5.47;;;27.70;39.10;;;;;;6112411;23;114117;-78
2023/07/05 05:55:09;;;;;;;10.95;6.00;;;27.80;39.20;;;;;;6114253;23;114005;-78
2023/07/05 05:57:37;;;;;;;8.23;6.22;;;27.70;39.00;;;;;;6113233;23;115273;-80
2023/07/05 06:00:08;;;;;;;10.63;6.00;;;27.70;39.20;;;;;;6113376;23;114624;-78
2023/07/05 06:02:38;;;;;;;8.30;5.55;;;27.60;39.60;;;;;;6115840;23;114252;-76
2023/07/05 06:05:06;;;;;;;10.18;6.28;;;27.60;39.30;;;;;;6115523;22;114232;-77
2023/07/05 06:07:33;;;;;;;10.75;5.90;;;27.70;39.40;;;;;;6136449;22;115313;-78
2023/07/05 06:10:00;;;;;;;9.07;6.20;;;27.80;39.30;;;;;;6113728;23;114641;-78
2023/07/05 06:12:27;;;;;;;8.45;5.85;;;27.70;39.00;;;;;;6113037;23;114094;-79
2023/07/05 06:14:54;;;;;;;9.93;6.15;;;27.40;39.70;;;;;;6114965;23;113889;-78
2023/07/05 06:17:21;;;;;;;9.25;5.78;;;27.30;39.80;;;;;;6112944;23;114870;-78
2023/07/05 06:19:48;;;;;;;8.32;5.75;;;27.30;39.70;;;;;;6113426;23;114559;-78
2023/07/05 06:22:15;;;;;;;9.82;5.60;;;27.30;39.70;;;;;;6114237;23;114164;-78
2023/07/05 06:24:43;;;;;;;10.48;6.05;;;27.40;40.00;;;;;;6114532;23;114137;-77
2023/07/05 06:27:10;;;;;;;8.90;5.80;;;27.60;39.80;;;;;;6113102;23;115503;-78
2023/07/05 06:29:37;;;;;;;7.95;5.28;;;27.70;39.30;;;;;;6113304;23;114655;-78
2023/07/05 06:32:05;;;;;;;8.93;6.35;;;27.80;40.10;;;;;;6114290;23;114050;-78
2023/07/05 06:34:34;;;;;;;10.23;6.07;;;28.00;39.40;;;;;;6112850;23;114332;-78
2023/07/05 06:37:02;;;;;;;9.75;6.18;;;28.30;39.10;;;;;;6113042;23;114844;-78
2023/07/05 06:39:29;;;;;;;9.68;6.43;;;28.50;38.20;;;;;;6112797;23;116565;-78
2023/07/05 06:41:56;;;;;;;10.48;6.40;;;28.80;37.90;;;;;;6113300;22;114355;-78
2023/07/05 06:44:24;;;;;;;11.65;6.43;;;28.90;37.60;;;;;;6114164;23;114265;-78
2023/07/05 06:46:52;;;;;;;9.70;6.03;;;29.00;37.60;;;;;;6113004;23;114794;-80
2023/07/05 06:49:19;;;;;;;11.73;6.80;;;29.20;37.10;;;;;;6112880;23;114504;-79
2023/07/05 06:51:46;;;;;;;11.07;6.57;;;29.20;37.30;;;;;;6113936;23;114441;-78
2023/07/05 06:54:13;;;;;;;10.35;6.68;;;29.20;37.10;;;;;;6114067;22;114111;-79
2023/07/05 06:56:40;;;;;;;8.52;6.38;;;29.30;37.30;;;;;;6086812;23;115488;-78
2023/07/05 06:59:07;;;;;;;9.60;6.18;;;29.40;37.10;;;;;;6113065;22;115793;-78
2023/07/05 07:01:34;;;;;;;9.27;6.20;;;29.40;36.90;;;;;;6113720;23;114045;-79
2023/07/05 07:04:05;;;;;;;9.25;6.50;;;29.30;36.80;;;;;;6113759;23;114103;-77
2023/07/05 07:06:33;;;;;;;9.40;6.15;;;28.90;37.60;;;;;;6112328;23;114915;-79
2023/07/05 07:09:04;;;;;;;9.60;6.38;;;29.00;37.10;;;;;;6112729;23;115639;-79
2023/07/05 07:11:32;;;;;;;8.93;5.78;;;29.00;37.10;;;;;;6113754;23;113928;-79
2023/07/05 07:14:00;;;;;;;9.27;5.97;;;28.90;37.00;;;;;;6113972;23;114286;-78
2023/07/05 07:16:27;;;;;;;9.52;6.35;;;28.80;37.30;;;;;;6111239;23;114792;-79
2023/07/05 07:18:55;;;;;;;10.50;6.50;;;28.70;37.90;;;;;;6112943;22;115557;-79
2023/07/05 07:21:23;;;;;;;10.05;6.93;;;28.80;37.80;;;;;;6113731;22;114250;-78
2023/07/05 07:23:51;;;;;;;10.05;6.10;;;28.90;37.70;;;;;;6114418;23;114119;-78
2023/07/05 07:26:20;;;;;;;9.02;5.88;;;29.00;37.10;;;;;;6112831;22;115317;-79
2023/07/05 07:28:49;;;;;;;9.73;6.32;;;29.00;37.50;;;;;;6112556;23;114572;-78
2023/07/05 07:31:21;;;;;;;11.10;6.22;;;28.80;37.80;;;;;;6113278;23;114275;-78
2023/07/05 07:33:48;;;;;;;9.48;6.30;;;28.90;37.80;;;;;;6113473;22;114546;-78
2023/07/05 07:36:18;;;;;;;9.55;6.07;;;28.90;37.70;;;;;;6112464;22;114729;-79
2023/07/05 07:38:46;;;;;;;8.40;5.97;;;29.10;37.30;;;;;;6111388;23;114546;-79
2023/07/05 07:41:13;;;;;;;12.25;6.38;;;29.10;37.50;;;;;;6113903;23;114256;-79
2023/07/05 07:43:41;;;;;;;10.80;5.95;;;29.20;37.00;;;;;;6113820;23;114163;-79
2023/07/05 07:46:09;;;;;;;8.15;5.78;;;29.30;36.90;;;;;;6086616;23;115252;-78
2023/07/05 07:48:39;;;;;;;8.43;6.18;;;29.30;36.60;;;;;;6111764;23;114922;-78
2023/07/05 07:51:06;;;;;;;10.50;6.20;;;29.30;36.70;;;;;;6114185;23;114101;-78
2023/07/05 07:53:33;;;;;;;9.43;6.45;;;29.40;36.80;;;;;;6112379;23;114354;-78
2023/07/05 07:56:02;;;;;;;10.30;6.13;;;29.50;36.80;;;;;;6111985;23;114780;-78
2023/07/05 07:58:31;;;;;;;9.57;6.07;;;29.60;35.80;;;;;;6110958;23;114748;-79
2023/07/05 08:00:58;;;;;;;13.52;8.80;;;29.40;36.20;;;;;;6113781;23;114156;-79
2023/07/05 08:03:26;;;;;;;10.43;6.15;;;29.40;36.40;;;;;;6113912;23;114494;-79
2023/07/05 08:05:53;;;;;;;9.70;6.25;;;29.50;36.50;;;;;;6112699;23;114815;-79
2023/07/05 08:08:21;;;;;;;8.70;5.82;;;29.70;36.00;;;;;;6111114;23;115800;-78
2023/07/05 08:10:48;;;;;;;8.32;6.57;;;29.70;35.90;;;;;;6113816;23;114108;-79
2023/07/05 08:13:15;;;;;;;10.32;6.95;;;29.70;36.00;;;;;;6112776;23;114240;-79
2023/07/05 08:15:43;;;;;;;8.82;5.88;;;29.80;36.00;;;;;;6086922;23;114983;-79
2023/07/05 08:18:10;;;;;;;11.25;5.85;;;29.90;35.80;;;;;;6110901;23;117439;-79
2023/07/05 08:20:37;;;;;;;8.48;5.32;;;30.00;35.30;;;;;;6112949;22;114077;-78
2023/07/05 08:23:05;;;;;;;7.93;5.90;;;30.10;35.00;;;;;;6112118;23;114218;-78
2023/07/05 08:25:34;;;;;;;8.48;6.10;;;30.20;34.80;;;;;;6086739;23;116755;-79
2023/07/05 08:28:01;;;;;;;7.32;5.22;;;30.30;34.90;;;;;;6112378;22;114498;-79
2023/07/05 08:30:28;;;;;;;9.57;5.32;;;30.10;34.60;;;;;;6113753;23;114056;-79
2023/07/05 08:32:55;;;;;;;9.40;5.80;;;29.90;35.30;;;;;;6111588;23;114223;-76
2023/07/05 08:35:22;;;;;;;10.18;5.80;;;29.90;34.60;;;;;;6112285;23;114841;-78
2023/07/05 08:37:49;;;;;;;9.30;6.05;;;29.90;34.30;;;;;;6112830;23;114300;-79
2023/07/05 08:40:17;;;;;;;9.02;5.22;;;30.00;34.30;;;;;;6113529;23;113976;-79
2023/07/05 08:43:01;;;;;;;10.13;5.38;;;30.10;34.50;;;;;;6112086;23;114354;-79
2023/07/05 08:45:38;;;;;;;7.70;5.38;;;30.30;33.90;;;;;;6086147;23;115925;-79
2023/07/05 08:48:05;;;;;;;9.43;5.63;;;30.20;34.00;;;;;;6109676;23;115136;-79
2023/07/05 08:50:35;;;;;;;8.50;5.38;;;30.20;33.50;;;;;;6087428;23;114197;-78
2023/07/05 08:53:23;;;;;;;10.10;5.65;;;30.10;33.60;;;;;;6113063;22;114355;-78
2023/07/05 08:56:00;;;;;;;8.52;5.53;;;30.00;33.90;;;;;;6087772;23;115133;-77
2023/07/05 08:58:39;;;;;;;8.43;4.75;;;30.00;33.50;;;;;;6112181;23;116384;-79
2023/07/05 09:01:10;;;;;;;7.78;5.63;;;29.80;33.80;;;;;;6112176;23;114267;-78
2023/07/05 09:03:37;;;;;;;7.22;5.25;;;29.70;34.00;;;;;;6112299;23;114769;-77
2023/07/05 09:06:27;;;;;;;7.93;5.20;;;29.60;33.80;;;;;;6110774;23;115513;-79
2023/07/05 09:08:55;;;;;;;9.38;5.05;;;29.40;33.90;;;;;;6111695;23;115416;-78
2023/07/05 09:11:37;;;;;;;8.43;5.38;;;29.20;34.20;;;;;;6111248;23;114302;-79
2023/07/05 09:14:34;;;;;;;9.25;4.97;;;28.90;34.40;;;;;;6113297;23;113909;-79
2023/07/05 09:17:16;;;;;;;8.02;5.22;;;28.70;34.80;;;;;;6110991;23;114903;-79
2023/07/05 09:20:05;;;;;;;8.07;5.43;;;28.40;35.10;;;;;;6111082;23;115114;-79
2023/07/05 09:22:36;;;;;;;10.05;5.15;;;28.40;35.40;;;;;;6112446;23;114451;-78
2023/07/05 09:25:05;;;;;;;12.93;8.82;;;28.40;35.10;;;;;;6114137;22;114043;-78
2023/07/05 09:27:37;;;;;;;8.20;5.88;;;28.60;35.30;;;;;;6110676;23;115296;-77
2023/07/05 09:30:10;;;;;;;6.97;5.07;;;28.80;34.90;;;;;;6113336;22;115939;-78
2023/07/05 09:32:39;;;;;;;7.43;5.23;;;29.20;34.30;;;;;;6113752;23;114038;-79
2023/07/05 09:35:17;;;;;;;9.68;5.00;;;29.50;33.40;;;;;;6113616;23;114617;-79
2023/07/05 09:38:17;;;;;;;7.68;5.20;;;29.50;33.60;;;;;;6110869;23;115122;-78
2023/07/05 09:40:55;;;;;;;6.95;5.00;;;29.70;33.60;;;;;;6108674;23;114573;-78
2023/07/05 09:43:30;;;;;;;9.68;5.40;;;29.80;33.70;;;;;;6112077;23;114554;-78
2023/07/05 09:46:00;;;;;;;6.97;5.25;;;30.00;33.50;;;;;;6112748;22;114304;-79
2023/07/05 09:48:29;;;;;;;7.25;4.28;;;30.10;33.90;;;;;;6110767;23;116046;-78
2023/07/05 09:51:03;;;;;;;6.35;4.35;;;30.10;32.00;;;;;;6112255;23;114784;-79
2023/07/05 09:53:41;;;;;;;6.75;4.03;;;30.20;31.20;;;;;;6113224;22;114233;-77
2023/07/05 09:56:09;;;;;;;5.07;3.92;;;30.30;31.20;;;;;;6112396;23;114118;-79
2023/07/05 09:58:37;;;;;;;5.93;3.97;;;30.20;31.10;;;;;;6111470;23;117852;-79
2023/07/05 10:01:06;;;;;;;6.28;4.00;;;30.00;30.60;;;;;;6113356;23;115889;-78
2023/07/05 10:03:38;;;;;;;6.20;4.00;;;30.00;31.40;;;;;;6088193;23;114099;-78
2023/07/05 10:06:09;;;;;;;7.13;4.38;;;30.10;32.20;;;;;;6112974;23;114163;-79
2023/07/05 10:08:44;;;;;;;6.47;4.25;;;30.20;31.20;;;;;;6111838;23;114873;-79
2023/07/05 10:11:23;;;;;;;5.70;3.90;;;30.40;31.10;;;;;;6087567;23;114569;-77
2023/07/05 10:14:27;;;;;;;8.38;4.47;;;30.60;31.60;;;;;;6113347;23;114306;-79
2023/07/05 10:16:57;;;;;;;8.10;4.50;;;30.70;31.20;;;;;;6083168;23;114195;-79
2023/07/05 10:19:38;;;;;;;7.50;4.70;;;30.60;30.50;;;;;;6113288;22;116179;-78
2023/07/05 10:22:06;;;;;;;6.80;4.82;;;30.60;30.70;;;;;;6114135;23;114817;-79
2023/07/05 10:24:42;;;;;;;8.65;4.25;;;30.70;30.50;;;;;;6114311;23;114056;-79
2023/07/05 10:27:24;;;;;;;5.85;4.60;;;30.80;31.20;;;;;;6113176;23;114238;-78
2023/07/05 10:30:00;;;;;;;6.68;4.50;;;30.80;30.60;;;;;;6112742;23;115371;-79
2023/07/05 10:32:29;;;;;;;8.45;4.40;;;30.80;30.00;;;;;;6111537;23;114698;-79
2023/07/05 10:34:57;;;;;;;9.35;4.70;;;30.60;30.40;;;;;;6112984;23;114278;-79
2023/07/05 10:37:36;;;;;;;8.55;4.38;;;30.50;31.10;;;;;;6088436;23;114219;-78
2023/07/05 10:40:05;;;;;;;6.88;4.70;;;30.40;31.40;;;;;;6111662;23;114901;-77
2023/07/05 10:42:49;;;;;;;8.60;4.85;;;30.30;31.70;;;;;;6111864;23;114544;-78
2023/07/05 10:45:20;;;;;;;6.90;4.60;;;30.40;31.80;;;;;;6064802;23;114178;-78
2023/07/05 10:47:52;;;;;;;7.95;5.13;;;30.40;31.50;;;;;;6113354;23;114252;-79
2023/07/05 10:50:26;;;;;;;6.27;4.70;;;30.50;31.90;;;;;;6111802;23;116150;-79
2023/07/05 10:53:00;;;;;;;7.63;5.00;;;30.60;32.40;;;;;;6087284;23;114610;-79
2023/07/05 10:55:43;;;;;;;6.35;4.45;;;30.80;31.80;;;;;;6112758;22;114148;-79
2023/07/05 10:58:18;;;;;;;6.45;5.00;;;30.90;31.60;;;;;;6113327;23;114445;-79
2023/07/05 11:00:50;;;;;;;6.15;4.35;;;30.90;30.70;;;;;;6111735;23;114750;-79
2023/07/05 11:03:24;;;;;;;6.83;4.70;;;30.80;31.10;;;;;;6111523;22;115088;-78
2023/07/05 11:05:57;;;;;;;7.95;4.97;;;30.80;30.60;;;;;;6088600;23;114177;-77
2023/07/05 11:08:38;;;;;;;7.63;4.72;;;30.80;30.90;;;;;;6112879;23;114163;-78
2023/07/05 11:11:15;;;;;;;8.50;5.15;;;30.80;30.90;;;;;;6111794;23;115926;-79
2023/07/05 11:13:44;;;;;;;7.63;4.80;;;30.60;31.30;;;;;;6113928;23;114564;-79
2023/07/05 11:16:19;;;;;;;7.07;5.00;;;30.50;31.60;;;;;;6112785;23;114151;-79
2023/07/05 11:18:46;;;;;;;7.35;4.60;;;30.50;31.60;;;;;;6088398;23;114380;-79
2023/07/05 11:21:50;;;;;;;5.97;4.88;;;30.30;31.60;;;;;;6112718;23;114886;-78
2023/07/05 11:24:30;;;;;;;6.93;4.55;;;30.30;31.70;;;;;;6111717;23;114576;-79
2023/07/05 11:26:58;;;;;;;10.13;5.50;;;30.20;32.00;;;;;;6137006;22;114092;-79
2023/07/05 11:29:28;;;;;;;7.60;4.93;;;30.20;32.20;;;;;;6114672;23;114073;-79
2023/07/05 11:31:58;;;;;;;8.63;5.22;;;30.30;31.90;;;;;;6111039;23;117672;-79
2023/07/05 11:34:26;;;;;;;13.52;6.00;;;30.30;31.60;;;;;;6112724;23;115871;-79
2023/07/05 11:37:06;;;;;;;9.73;5.18;;;30.20;32.20;;;;;;6114169;23;114155;-81
2023/07/05 11:39:38;;;;;;;7.47;5.00;;;30.30;32.40;;;;;;6114424;22;114339;-79
2023/07/05 11:42:14;;;;;;;7.10;4.75;;;30.20;31.30;;;;;;6112959;23;117031;-78
2023/07/05 11:44:48;;;;;;;7.72;5.00;;;30.10;31.10;;;;;;6112995;23;114521;-78
2023/07/05 11:47:23;;;;;;;6.75;5.10;;;30.00;30.90;;;;;;6113866;23;114323;-78
2023/07/05 11:49:57;;;;;;;6.68;5.20;;;29.80;31.20;;;;;;6112400;23;114293;-78
2023/07/05 11:52:31;;;;;;;6.47;4.93;;;29.70;31.40;;;;;;6086355;23;117660;-78
2023/07/05 11:55:15;;;;;;;8.23;4.88;;;29.70;32.20;;;;;;6136491;22;114751;-78
2023/07/05 11:58:16;;;;;;;9.20;4.80;;;29.60;31.40;;;;;;6114340;23;114244;-78
2023/07/05 12:00:47;;;;;;;19.20;6.38;;;29.60;31.30;;;;;;6113843;22;114431;-78
2023/07/05 12:03:17;;;;;;;6.07;4.38;;;29.60;31.90;;;;;;6111523;23;114867;-78
2023/07/05 12:05:46;;;;;;;6.72;4.85;;;29.70;31.90;;;;;;6112032;23;115123;-78
2023/07/05 12:08:22;;;;;;;6.38;4.72;;;29.70;32.10;;;;;;6112466;23;114162;-77
2023/07/05 12:10:54;;;;;;;7.60;5.28;;;29.70;31.60;;;;;;6113456;23;115330;-77
2023/07/05 12:13:24;;;;;;;8.85;4.75;;;29.80;31.90;;;;;;6110501;23;116481;-77
2023/07/05 12:15:53;;;;;;;8.30;5.60;;;29.80;32.10;;;;;;6111003;23;114605;-78
2023/07/05 12:18:21;;;;;;;8.70;5.07;;;29.70;31.80;;;;;;6112126;23;114250;-77
2023/07/05 12:20:49;;;;;;;6.45;4.75;;;29.70;31.80;;;;;;6112079;23;114096;-76
2023/07/05 12:23:17;;;;;;;6.47;4.72;;;29.70;32.70;;;;;;6086282;23;116548;-79
2023/07/05 12:25:49;;;;;;;6.72;4.72;;;29.70;32.70;;;;;;6110939;23;115885;-78
2023/07/05 12:28:20;;;;;;;7.68;4.57;;;29.70;31.70;;;;;;6111838;23;114341;-79
2023/07/05 12:30:47;;;;;;;6.82;4.50;;;29.70;31.90;;;;;;6114382;22;114206;-79
2023/07/05 12:33:23;;;;;;;10.18;4.88;;;29.60;32.00;;;;;;6110806;23;114827;-79
2023/07/05 12:36:05;;;;;;;8.02;4.40;;;29.50;32.40;;;;;;6113069;23;114528;-79
2023/07/05 12:38:32;;;;;;;7.30;4.88;;;29.30;32.60;;;;;;6113760;23;114091;-79
2023/07/05 12:40:59;;;;;;;8.75;4.95;;;29.00;33.40;;;;;;6114033;23;114184;-79
2023/07/05 12:43:30;;;;;;;7.80;4.90;;;28.90;33.60;;;;;;6113055;23;115374;-79
2023/07/05 12:46:14;;;;;;;6.35;4.47;;;28.80;34.10;;;;;;6112993;23;114892;-79
2023/07/05 12:48:41;;;;;;;8.07;5.35;;;28.70;34.40;;;;;;6112452;23;114431;-78
2023/07/05 12:51:09;;;;;;;6.65;4.55;;;28.60;34.30;;;;;;6114536;23;114182;-78
2023/07/05 12:53:36;;;;;;;7.47;5.57;;;28.60;33.90;;;;;;6113746;23;117323;-78